sensor_id;sensor_type;location;lat;lon;timestamp;pressure;altitude;pressure_sealevel;temperature;humidity
43450;BME280;29041;42.266;23.110;2023-07-29T00:02:33;95640.81;;;18.52;62.55
43450;BME280;29041;42.266;23.110;2023-07-29T00:05:23;95637.94;;;18.86;62.04
43450;BME280;29041;42.266;23.110;2023-07-29T00:08:11;95637.09;;;18.78;62.00
43450;BME280;29041;42.266;23.110;2023-07-29T00:11:05;95632.31;;;18.57;62.93
43450;BME280;29041;42.266;23.110;2023-07-29T00:13:58;95635.25;;;18.37;64.08
43450;BME280;29041;42.266;23.110;2023-07-29T00:16:49;95639.19;;;18.44;63.57
43450;BME280;29041;42.266;23.110;2023-07-29T00:19:41;95633.66;;;18.33;64.32
43450;BME280;29041;42.266;23.110;2023-07-29T00:22:35;95633.97;;;18.24;64.81
43450;BME280;29041;42.266;23.110;2023-07-29T00:25:27;95625.34;;;18.15;64.65
43450;BME280;29041;42.266;23.110;2023-07-29T00:28:15;95623.16;;;17.90;65.55
43450;BME280;29041;42.266;23.110;2023-07-29T00:31:06;95631.09;;;18.06;65.64
43450;BME280;29041;42.266;23.110;2023-07-29T00:33:53;95617.63;;;17.79;65.39
43450;BME280;29041;42.266;23.110;2023-07-29T00:36:41;95617.59;;;17.75;65.65
43450;BME280;29041;42.266;23.110;2023-07-29T00:39:30;95626.34;;;17.62;66.38
43450;BME280;29041;42.266;23.110;2023-07-29T00:42:17;95629.91;;;17.69;66.38
43450;BME280;29041;42.266;23.110;2023-07-29T00:45:05;95626.34;;;17.62;66.48
43450;BME280;29041;42.266;23.110;2023-07-29T00:47:53;95625.84;;;17.52;66.94
43450;BME280;29041;42.266;23.110;2023-07-29T00:50:40;95628.75;;;17.70;66.37
43450;BME280;29041;42.266;23.110;2023-07-29T00:53:28;95634.00;;;17.52;67.29
43450;BME280;29041;42.266;23.110;2023-07-29T00:56:16;95632.00;;;17.46;67.55
43450;BME280;29041;42.266;23.110;2023-07-29T00:59:03;95629.13;;;17.69;66.82
43450;BME280;29041;42.266;23.110;2023-07-29T01:01:51;95633.19;;;17.48;66.97
43450;BME280;29041;42.266;23.110;2023-07-29T01:04:38;95631.88;;;16.81;69.98
43450;BME280;29041;42.266;23.110;2023-07-29T01:07:30;95634.28;;;16.86;70.39
43450;BME280;29041;42.266;23.110;2023-07-29T01:10:30;95628.81;;;16.83;70.69
43450;BME280;29041;42.266;23.110;2023-07-29T01:13:25;95627.13;;;16.74;71.29
43450;BME280;29041;42.266;23.110;2023-07-29T01:16:21;95632.56;;;16.74;70.32
43450;BME280;29041;42.266;23.110;2023-07-29T01:19:18;95629.63;;;16.87;71.12
43450;BME280;29041;42.266;23.110;2023-07-29T01:22:10;95620.31;;;16.57;71.53
43450;BME280;29041;42.266;23.110;2023-07-29T01:25:02;95629.41;;;16.72;70.58
43450;BME280;29041;42.266;23.110;2023-07-29T01:27:53;95606.53;;;16.70;70.67
43450;BME280;29041;42.266;23.110;2023-07-29T01:30:43;95616.63;;;16.96;70.86
43450;BME280;29041;42.266;23.110;2023-07-29T01:33:37;95602.91;;;16.58;71.24
43450;BME280;29041;42.266;23.110;2023-07-29T01:36:31;95610.00;;;16.67;71.02
43450;BME280;29041;42.266;23.110;2023-07-29T01:39:21;95615.31;;;16.59;71.70
43450;BME280;29041;42.266;23.110;2023-07-29T01:42:11;95606.38;;;16.59;70.89
43450;BME280;29041;42.266;23.110;2023-07-29T01:45:00;95617.75;;;16.68;71.26
43450;BME280;29041;42.266;23.110;2023-07-29T01:47:48;95622.72;;;16.89;69.97
43450;BME280;29041;42.266;23.110;2023-07-29T01:50:36;95613.22;;;16.76;70.52
43450;BME280;29041;42.266;23.110;2023-07-29T01:53:24;95621.44;;;16.56;71.23
43450;BME280;29041;42.266;23.110;2023-07-29T01:56:12;95621.78;;;16.51;72.22
43450;BME280;29041;42.266;23.110;2023-07-29T01:59:01;95622.69;;;16.36;72.77
43450;BME280;29041;42.266;23.110;2023-07-29T02:01:50;95625.25;;;16.52;72.46
43450;BME280;29041;42.266;23.110;2023-07-29T02:04:37;95631.81;;;16.50;72.47
43450;BME280;29041;42.266;23.110;2023-07-29T02:07:26;95641.03;;;16.96;70.71
43450;BME280;29041;42.266;23.110;2023-07-29T02:10:14;95623.81;;;17.42;67.80
43450;BME280;29041;42.266;23.110;2023-07-29T02:13:01;95623.84;;;16.88;69.71
43450;BME280;29041;42.266;23.110;2023-07-29T02:15:50;95619.16;;;17.12;68.63
43450;BME280;29041;42.266;23.110;2023-07-29T02:18:38;95621.19;;;16.92;69.26
43450;BME280;29041;42.266;23.110;2023-07-29T02:21:26;95585.91;;;16.34;70.81
43450;BME280;29041;42.266;23.110;2023-07-29T02:24:13;95598.69;;;16.34;71.93
43450;BME280;29041;42.266;23.110;2023-07-29T02:27:01;95636.34;;;16.70;71.71
43450;BME280;29041;42.266;23.110;2023-07-29T02:29:50;95634.69;;;16.61;71.95
43450;BME280;29041;42.266;23.110;2023-07-29T02:32:41;95635.09;;;16.37;73.20
43450;BME280;29041;42.266;23.110;2023-07-29T02:35:29;95627.06;;;16.21;74.17
43450;BME280;29041;42.266;23.110;2023-07-29T02:38:17;95639.72;;;16.36;73.83
43450;BME280;29041;42.266;23.110;2023-07-29T02:41:05;95642.19;;;16.45;73.15
43450;BME280;29041;42.266;23.110;2023-07-29T02:43:55;95623.28;;;16.25;73.39
43450;BME280;29041;42.266;23.110;2023-07-29T02:46:42;95622.28;;;16.10;74.12
43450;BME280;29041;42.266;23.110;2023-07-29T02:49:34;95635.84;;;16.37;73.70
43450;BME280;29041;42.266;23.110;2023-07-29T02:52:22;95631.56;;;16.59;71.79
43450;BME280;29041;42.266;23.110;2023-07-29T02:55:10;95645.25;;;16.43;73.02
43450;BME280;29041;42.266;23.110;2023-07-29T02:57:58;95646.59;;;16.30;73.79
43450;BME280;29041;42.266;23.110;2023-07-29T03:00:46;95655.09;;;16.78;72.28
43450;BME280;29041;42.266;23.110;2023-07-29T03:03:34;95650.22;;;16.64;72.40
43450;BME280;29041;42.266;23.110;2023-07-29T03:06:23;95651.28;;;16.33;74.38
43450;BME280;29041;42.266;23.110;2023-07-29T03:09:10;95644.66;;;16.30;74.35
43450;BME280;29041;42.266;23.110;2023-07-29T03:11:57;95656.53;;;16.22;74.71
43450;BME280;29041;42.266;23.110;2023-07-29T03:14:47;95652.69;;;16.23;74.88
43450;BME280;29041;42.266;23.110;2023-07-29T03:17:34;95652.78;;;16.30;74.51
43450;BME280;29041;42.266;23.110;2023-07-29T03:20:21;95654.56;;;16.46;74.01
43450;BME280;29041;42.266;23.110;2023-07-29T03:23:10;95646.84;;;16.21;75.18
43450;BME280;29041;42.266;23.110;2023-07-29T03:25:57;95649.78;;;16.36;74.75
43450;BME280;29041;42.266;23.110;2023-07-29T03:28:45;95647.31;;;16.27;75.08
43450;BME280;29041;42.266;23.110;2023-07-29T03:31:32;95647.09;;;16.16;75.79
43450;BME280;29041;42.266;23.110;2023-07-29T03:34:19;95648.25;;;15.92;76.38
43450;BME280;29041;42.266;23.110;2023-07-29T03:37:06;95646.47;;;16.23;76.04
43450;BME280;29041;42.266;23.110;2023-07-29T03:39:55;95648.38;;;15.99;76.26
43450;BME280;29041;42.266;23.110;2023-07-29T03:42:42;95649.31;;;15.87;76.57
43450;BME280;29041;42.266;23.110;2023-07-29T03:45:29;95652.38;;;15.85;76.86
43450;BME280;29041;42.266;23.110;2023-07-29T03:48:16;95649.16;;;15.99;75.85
43450;BME280;29041;42.266;23.110;2023-07-29T03:51:03;95656.59;;;15.83;77.02
43450;BME280;29041;42.266;23.110;2023-07-29T03:53:50;95656.47;;;15.56;78.72
43450;BME280;29041;42.266;23.110;2023-07-29T03:56:39;95651.31;;;15.51;78.92
43450;BME280;29041;42.266;23.110;2023-07-29T03:59:27;95660.13;;;15.87;78.04
43450;BME280;29041;42.266;23.110;2023-07-29T04:02:15;95668.03;;;15.76;77.55
43450;BME280;29041;42.266;23.110;2023-07-29T04:05:02;95673.53;;;15.60;78.39
43450;BME280;29041;42.266;23.110;2023-07-29T04:07:49;95666.84;;;15.93;77.16
43450;BME280;29041;42.266;23.110;2023-07-29T04:10:36;95677.50;;;16.06;76.31
43450;BME280;29041;42.266;23.110;2023-07-29T04:13:25;95667.13;;;15.68;77.48
43450;BME280;29041;42.266;23.110;2023-07-29T04:16:12;95673.03;;;15.74;78.30
43450;BME280;29041;42.266;23.110;2023-07-29T04:18:59;95668.94;;;16.23;75.88
43450;BME280;29041;42.266;23.110;2023-07-29T04:21:46;95676.56;;;16.41;75.51
43450;BME280;29041;42.266;23.110;2023-07-29T04:24:33;95665.41;;;16.23;75.78
43450;BME280;29041;42.266;23.110;2023-07-29T04:27:20;95677.75;;;16.20;76.21
43450;BME280;29041;42.266;23.110;2023-07-29T04:30:09;95675.00;;;16.63;74.86
43450;BME280;29041;42.266;23.110;2023-07-29T04:32:57;95661.91;;;16.69;74.54
43450;BME280;29041;42.266;23.110;2023-07-29T04:35:44;95669.19;;;16.91;73.74
43450;BME280;29041;42.266;23.110;2023-07-29T04:38:32;95675.00;;;17.17;72.32
43450;BME280;29041;42.266;23.110;2023-07-29T04:41:20;95672.25;;;17.13;72.25
43450;BME280;29041;42.266;23.110;2023-07-29T04:44:07;95679.81;;;17.27;71.99
43450;BME280;29041;42.266;23.110;2023-07-29T04:46:55;95683.25;;;17.24;72.94
43450;BME280;29041;42.266;23.110;2023-07-29T04:49:42;95684.50;;;17.03;73.50
43450;BME280;29041;42.266;23.110;2023-07-29T04:52:30;95690.16;;;17.48;71.71
43450;BME280;29041;42.266;23.110;2023-07-29T04:55:17;95697.50;;;17.78;72.16
43450;BME280;29041;42.266;23.110;2023-07-29T04:58:04;95685.81;;;17.13;73.34
43450;BME280;29041;42.266;23.110;2023-07-29T05:00:51;95697.75;;;17.35;73.33
43450;BME280;29041;42.266;23.110;2023-07-29T05:03:39;95693.78;;;17.59;72.96
43450;BME280;29041;42.266;23.110;2023-07-29T05:06:26;95688.22;;;17.79;71.94
43450;BME280;29041;42.266;23.110;2023-07-29T05:09:15;95684.47;;;17.95;71.49
43450;BME280;29041;42.266;23.110;2023-07-29T05:12:04;95689.28;;;18.05;70.98
43450;BME280;29041;42.266;23.110;2023-07-29T05:14:51;95697.31;;;18.32;70.79
43450;BME280;29041;42.266;23.110;2023-07-29T05:17:39;95694.84;;;18.57;69.02
43450;BME280;29041;42.266;23.110;2023-07-29T05:20:27;95696.25;;;18.89;67.98
43450;BME280;29041;42.266;23.110;2023-07-29T05:23:14;95689.94;;;19.29;66.14
43450;BME280;29041;42.266;23.110;2023-07-29T05:26:02;95690.13;;;19.73;64.78
43450;BME280;29041;42.266;23.110;2023-07-29T05:28:49;95700.75;;;20.00;63.81
43450;BME280;29041;42.266;23.110;2023-07-29T05:31:36;95696.91;;;20.26;62.59
43450;BME280;29041;42.266;23.110;2023-07-29T05:34:23;95692.19;;;19.97;64.18
43450;BME280;29041;42.266;23.110;2023-07-29T05:37:11;95708.09;;;19.85;65.11
43450;BME280;29041;42.266;23.110;2023-07-29T05:39:59;95708.19;;;19.32;67.29
43450;BME280;29041;42.266;23.110;2023-07-29T05:42:46;95706.03;;;19.63;66.35
43450;BME280;29041;42.266;23.110;2023-07-29T05:45:33;95695.00;;;20.34;63.66
43450;BME280;29041;42.266;23.110;2023-07-29T05:48:21;95702.03;;;20.53;62.13
43450;BME280;29041;42.266;23.110;2023-07-29T05:51:08;95700.91;;;20.75;60.99
43450;BME280;29041;42.266;23.110;2023-07-29T05:53:57;95702.78;;;20.50;62.08
43450;BME280;29041;42.266;23.110;2023-07-29T05:56:44;95700.09;;;20.97;59.51
43450;BME280;29041;42.266;23.110;2023-07-29T05:59:31;95709.09;;;20.79;59.61
43450;BME280;29041;42.266;23.110;2023-07-29T06:02:18;95714.88;;;20.67;60.09
43450;BME280;29041;42.266;23.110;2023-07-29T06:05:06;95695.75;;;20.34;59.94
43450;BME280;29041;42.266;23.110;2023-07-29T06:07:53;95697.75;;;20.52;59.80
43450;BME280;29041;42.266;23.110;2023-07-29T06:10:41;95693.06;;;20.63;59.23
43450;BME280;29041;42.266;23.110;2023-07-29T06:13:28;95699.34;;;20.82;57.92
43450;BME280;29041;42.266;23.110;2023-07-29T06:16:16;95703.16;;;21.38;56.48
43450;BME280;29041;42.266;23.110;2023-07-29T06:19:03;95696.13;;;21.30;55.62
43450;BME280;29041;42.266;23.110;2023-07-29T06:21:50;95697.66;;;21.53;53.87
43450;BME280;29041;42.266;23.110;2023-07-29T06:24:37;95694.13;;;21.70;53.24
43450;BME280;29041;42.266;23.110;2023-07-29T06:27:26;95687.94;;;21.59;53.95
43450;BME280;29041;42.266;23.110;2023-07-29T06:30:13;95677.69;;;21.78;53.64
43450;BME280;29041;42.266;23.110;2023-07-29T06:33:00;95679.03;;;22.22;52.64
43450;BME280;29041;42.266;23.110;2023-07-29T06:35:48;95672.72;;;22.32;52.90
43450;BME280;29041;42.266;23.110;2023-07-29T06:38:36;95670.22;;;22.56;51.38
43450;BME280;29041;42.266;23.110;2023-07-29T06:41:23;95659.38;;;22.38;53.07
43450;BME280;29041;42.266;23.110;2023-07-29T06:44:12;95662.78;;;22.57;51.92
43450;BME280;29041;42.266;23.110;2023-07-29T06:46:59;95659.19;;;22.71;51.80
43450;BME280;29041;42.266;23.110;2023-07-29T06:49:46;95670.66;;;22.96;51.59
43450;BME280;29041;42.266;23.110;2023-07-29T06:52:34;95655.75;;;23.43;49.12
43450;BME280;29041;42.266;23.110;2023-07-29T06:55:22;95667.75;;;23.14;50.58
43450;BME280;29041;42.266;23.110;2023-07-29T06:58:10;95649.56;;;23.35;49.18
43450;BME280;29041;42.266;23.110;2023-07-29T07:00:58;95658.91;;;23.41;50.02
43450;BME280;29041;42.266;23.110;2023-07-29T07:03:45;95657.50;;;23.60;49.02
43450;BME280;29041;42.266;23.110;2023-07-29T07:06:32;95662.13;;;23.67;48.88
43450;BME280;29041;42.266;23.110;2023-07-29T07:09:19;95647.91;;;24.34;47.76
43450;BME280;29041;42.266;23.110;2023-07-29T07:12:07;95647.91;;;24.07;48.33
43450;BME280;29041;42.266;23.110;2023-07-29T07:14:54;95639.16;;;23.88;49.03
43450;BME280;29041;42.266;23.110;2023-07-29T07:17:43;95637.63;;;24.42;46.30
43450;BME280;29041;42.266;23.110;2023-07-29T07:20:30;95633.09;;;24.55;46.50
43450;BME280;29041;42.266;23.110;2023-07-29T07:23:18;95632.13;;;24.66;46.31
43450;BME280;29041;42.266;23.110;2023-07-29T07:26:05;95631.53;;;24.54;46.40
43450;BME280;29041;42.266;23.110;2023-07-29T07:28:52;95625.09;;;24.68;46.35
43450;BME280;29041;42.266;23.110;2023-07-29T07:31:40;95621.00;;;25.21;45.28
43450;BME280;29041;42.266;23.110;2023-07-29T07:34:29;95619.88;;;25.78;44.20
43450;BME280;29041;42.266;23.110;2023-07-29T07:37:16;95612.97;;;25.70;43.62
43450;BME280;29041;42.266;23.110;2023-07-29T07:40:03;95614.56;;;26.08;43.52
43450;BME280;29041;42.266;23.110;2023-07-29T07:42:50;95612.69;;;25.85;42.57
43450;BME280;29041;42.266;23.110;2023-07-29T07:45:37;95605.16;;;25.69;43.08
43450;BME280;29041;42.266;23.110;2023-07-29T07:48:25;95594.56;;;26.04;42.93
43450;BME280;29041;42.266;23.110;2023-07-29T07:51:14;95592.78;;;27.26;40.68
43450;BME280;29041;42.266;23.110;2023-07-29T07:54:01;95601.88;;;28.94;36.84
43450;BME280;29041;42.266;23.110;2023-07-29T07:56:48;95586.69;;;32.48;30.79
43450;BME280;29041;42.266;23.110;2023-07-29T07:59:35;95591.13;;;33.42;28.20
43450;BME280;29041;42.266;23.110;2023-07-29T08:02:22;95580.72;;;37.36;23.45
43450;BME280;29041;42.266;23.110;2023-07-29T08:05:09;95584.38;;;36.81;23.99
43450;BME280;29041;42.266;23.110;2023-07-29T08:07:58;95582.59;;;34.77;26.24
43450;BME280;29041;42.266;23.110;2023-07-29T08:10:45;95587.66;;;34.07;26.81
43450;BME280;29041;42.266;23.110;2023-07-29T08:13:32;95599.06;;;34.95;25.42
43450;BME280;29041;42.266;23.110;2023-07-29T08:16:19;95596.06;;;34.99;25.70
43450;BME280;29041;42.266;23.110;2023-07-29T08:19:06;95596.81;;;33.93;27.61
43450;BME280;29041;42.266;23.110;2023-07-29T08:21:55;95598.50;;;32.33;28.86
43450;BME280;29041;42.266;23.110;2023-07-29T08:24:44;95586.53;;;33.54;28.27
43450;BME280;29041;42.266;23.110;2023-07-29T08:27:33;95589.94;;;35.42;25.49
43450;BME280;29041;42.266;23.110;2023-07-29T08:30:20;95590.66;;;36.27;24.24
43450;BME280;29041;42.266;23.110;2023-07-29T08:33:07;95591.75;;;37.68;22.34
43450;BME280;29041;42.266;23.110;2023-07-29T08:35:54;95545.41;;;38.35;21.40
43450;BME280;29041;42.266;23.110;2023-07-29T08:38:42;95593.44;;;37.31;22.25
43450;BME280;29041;42.266;23.110;2023-07-29T08:41:35;95583.13;;;37.88;22.17
43450;BME280;29041;42.266;23.110;2023-07-29T08:44:26;95584.41;;;35.01;24.73
43450;BME280;29041;42.266;23.110;2023-07-29T08:47:17;95581.00;;;35.91;23.73
43450;BME280;29041;42.266;23.110;2023-07-29T08:50:06;95578.63;;;37.02;22.76
43450;BME280;29041;42.266;23.110;2023-07-29T08:52:55;95577.28;;;36.86;22.45
43450;BME280;29041;42.266;23.110;2023-07-29T08:55:42;95557.91;;;35.90;23.70
43450;BME280;29041;42.266;23.110;2023-07-29T08:58:32;95566.78;;;35.36;24.86
43450;BME280;29041;42.266;23.110;2023-07-29T09:01:19;95564.09;;;36.43;24.13
43450;BME280;29041;42.266;23.110;2023-07-29T09:04:06;95551.81;;;37.90;21.76
43450;BME280;29041;42.266;23.110;2023-07-29T09:06:53;95546.41;;;34.26;25.65
43450;BME280;29041;42.266;23.110;2023-07-29T09:09:42;95542.75;;;35.70;24.33
43450;BME280;29041;42.266;23.110;2023-07-29T09:12:29;95533.72;;;37.45;22.41
43450;BME280;29041;42.266;23.110;2023-07-29T09:15:28;95542.03;;;36.45;23.28
43450;BME280;29041;42.266;23.110;2023-07-29T09:18:17;95535.72;;;35.81;23.33
43450;BME280;29041;42.266;23.110;2023-07-29T09:21:05;95545.94;;;35.31;24.40
43450;BME280;29041;42.266;23.110;2023-07-29T09:23:54;95542.88;;;37.63;21.62
43450;BME280;29041;42.266;23.110;2023-07-29T09:26:48;95527.69;;;36.81;22.47
43450;BME280;29041;42.266;23.110;2023-07-29T09:29:36;95536.38;;;34.70;25.15
43450;BME280;29041;42.266;23.110;2023-07-29T09:32:25;95534.34;;;35.65;23.79
43450;BME280;29041;42.266;23.110;2023-07-29T09:35:13;95535.75;;;34.60;25.46
43450;BME280;29041;42.266;23.110;2023-07-29T09:38:00;95518.88;;;33.63;26.14
43450;BME280;29041;42.266;23.110;2023-07-29T09:40:47;95516.88;;;34.50;25.26
43450;BME280;29041;42.266;23.110;2023-07-29T09:43:35;95515.19;;;34.02;25.63
43450;BME280;29041;42.266;23.110;2023-07-29T09:46:23;95519.16;;;33.65;26.76
43450;BME280;29041;42.266;23.110;2023-07-29T09:49:12;95503.63;;;33.13;26.56
43450;BME280;29041;42.266;23.110;2023-07-29T09:51:59;95515.91;;;33.36;26.29
43450;BME280;29041;42.266;23.110;2023-07-29T09:55:03;95512.03;;;31.83;29.01
43450;BME280;29041;42.266;23.110;2023-07-29T09:57:53;95502.28;;;32.45;27.70
43450;BME280;29041;42.266;23.110;2023-07-29T10:00:41;95506.75;;;32.27;27.82
43450;BME280;29041;42.266;23.110;2023-07-29T10:03:29;95488.63;;;31.74;28.80
43450;BME280;29041;42.266;23.110;2023-07-29T10:06:19;95494.44;;;32.19;28.28
43450;BME280;29041;42.266;23.110;2023-07-29T10:09:11;95495.94;;;31.53;28.82
43450;BME280;29041;42.266;23.110;2023-07-29T10:11:58;95497.72;;;31.04;29.38
43450;BME280;29041;42.266;23.110;2023-07-29T10:14:47;95490.19;;;31.14;29.51
43450;BME280;29041;42.266;23.110;2023-07-29T10:17:36;95484.72;;;31.47;29.18
43450;BME280;29041;42.266;23.110;2023-07-29T10:20:23;95486.53;;;31.51;29.02
43450;BME280;29041;42.266;23.110;2023-07-29T10:23:12;95470.75;;;32.33;28.39
43450;BME280;29041;42.266;23.110;2023-07-29T10:26:03;95463.25;;;32.24;28.43
43450;BME280;29041;42.266;23.110;2023-07-29T10:28:52;95467.56;;;32.89;27.08
43450;BME280;29041;42.266;23.110;2023-07-29T10:31:43;95468.59;;;32.92;26.19
43450;BME280;29041;42.266;23.110;2023-07-29T10:34:32;95464.56;;;32.38;26.65
43450;BME280;29041;42.266;23.110;2023-07-29T10:37:20;95450.50;;;32.57;27.03
43450;BME280;29041;42.266;23.110;2023-07-29T10:40:11;95449.53;;;32.99;26.53
43450;BME280;29041;42.266;23.110;2023-07-29T10:43:02;95447.81;;;33.17;26.18
43450;BME280;29041;42.266;23.110;2023-07-29T10:45:49;95450.00;;;32.98;26.30
43450;BME280;29041;42.266;23.110;2023-07-29T10:48:40;95452.69;;;32.92;25.45
43450;BME280;29041;42.266;23.110;2023-07-29T10:51:29;95447.84;;;32.63;25.86
43450;BME280;29041;42.266;23.110;2023-07-29T10:54:18;95435.34;;;32.43;25.91
43450;BME280;29041;42.266;23.110;2023-07-29T10:57:07;95424.09;;;32.77;26.17
43450;BME280;29041;42.266;23.110;2023-07-29T10:59:54;95427.22;;;32.94;25.66
43450;BME280;29041;42.266;23.110;2023-07-29T11:02:42;95433.34;;;33.13;25.89
43450;BME280;29041;42.266;23.110;2023-07-29T11:05:46;95418.06;;;33.23;25.51
43450;BME280;29041;42.266;23.110;2023-07-29T11:08:34;95429.06;;;32.57;26.01
43450;BME280;29041;42.266;23.110;2023-07-29T11:11:21;95418.06;;;32.24;26.21
43450;BME280;29041;42.266;23.110;2023-07-29T11:14:10;95410.25;;;32.52;25.09
43450;BME280;29041;42.266;23.110;2023-07-29T11:16:58;95403.22;;;32.03;25.21
43450;BME280;29041;42.266;23.110;2023-07-29T11:19:46;95418.28;;;33.04;24.74
43450;BME280;29041;42.266;23.110;2023-07-29T11:22:34;95404.13;;;32.48;23.88
43450;BME280;29041;42.266;23.110;2023-07-29T11:25:23;95405.50;;;32.04;24.41
43450;BME280;29041;42.266;23.110;2023-07-29T11:28:10;95398.25;;;33.15;25.03
43450;BME280;29041;42.266;23.110;2023-07-29T11:30:59;95405.56;;;32.43;24.29
43450;BME280;29041;42.266;23.110;2023-07-29T11:33:46;95399.69;;;32.96;24.42
43450;BME280;29041;42.266;23.110;2023-07-29T11:36:33;95384.63;;;33.32;23.33
43450;BME280;29041;42.266;23.110;2023-07-29T11:39:20;95390.81;;;33.57;22.98
43450;BME280;29041;42.266;23.110;2023-07-29T11:42:10;95381.00;;;32.81;23.11
43450;BME280;29041;42.266;23.110;2023-07-29T11:45:08;95395.06;;;32.78;23.19
43450;BME280;29041;42.266;23.110;2023-07-29T11:47:57;95382.53;;;32.82;23.15
43450;BME280;29041;42.266;23.110;2023-07-29T11:50:45;95371.75;;;33.71;22.83
43450;BME280;29041;42.266;23.110;2023-07-29T11:53:32;95374.13;;;33.78;22.75
43450;BME280;29041;42.266;23.110;2023-07-29T11:56:20;95372.81;;;33.73;21.46
43450;BME280;29041;42.266;23.110;2023-07-29T11:59:07;95374.38;;;33.59;22.01
43450;BME280;29041;42.266;23.110;2023-07-29T12:01:54;95362.16;;;33.36;21.42
43450;BME280;29041;42.266;23.110;2023-07-29T12:04:43;95372.72;;;32.57;21.81
43450;BME280;29041;42.266;23.110;2023-07-29T12:07:32;95353.00;;;33.00;21.85
43450;BME280;29041;42.266;23.110;2023-07-29T12:10:19;95359.06;;;32.98;21.57
43450;BME280;29041;42.266;23.110;2023-07-29T12:13:08;95354.81;;;33.03;21.93
43450;BME280;29041;42.266;23.110;2023-07-29T12:16:01;95357.38;;;33.06;21.29
43450;BME280;29041;42.266;23.110;2023-07-29T12:18:50;95367.66;;;33.15;21.04
43450;BME280;29041;42.266;23.110;2023-07-29T12:21:39;95358.72;;;33.26;20.96
43450;BME280;29041;42.266;23.110;2023-07-29T12:24:27;95356.84;;;33.74;21.72
43450;BME280;29041;42.266;23.110;2023-07-29T12:27:14;95341.88;;;33.00;20.91
43450;BME280;29041;42.266;23.110;2023-07-29T12:30:04;95341.75;;;33.24;21.45
43450;BME280;29041;42.266;23.110;2023-07-29T12:32:52;95344.13;;;33.67;21.45
43450;BME280;29041;42.266;23.110;2023-07-29T12:35:39;95341.44;;;33.73;21.11
43450;BME280;29041;42.266;23.110;2023-07-29T12:38:28;95338.06;;;33.48;21.25
43450;BME280;29041;42.266;23.110;2023-07-29T12:41:15;95338.63;;;33.52;21.01
43450;BME280;29041;42.266;23.110;2023-07-29T12:44:03;95336.19;;;33.80;21.85
43450;BME280;29041;42.266;23.110;2023-07-29T12:46:50;95340.78;;;33.27;21.56
43450;BME280;29041;42.266;23.110;2023-07-29T12:49:37;95335.72;;;33.11;21.70
43450;BME280;29041;42.266;23.110;2023-07-29T12:52:24;95336.72;;;32.93;21.45
43450;BME280;29041;42.266;23.110;2023-07-29T12:55:13;95328.88;;;32.91;21.80
43450;BME280;29041;42.266;23.110;2023-07-29T12:58:00;95327.13;;;33.29;22.23
43450;BME280;29041;42.266;23.110;2023-07-29T13:00:47;95340.28;;;33.29;21.43
43450;BME280;29041;42.266;23.110;2023-07-29T13:03:34;95336.97;;;32.50;21.91
43450;BME280;29041;42.266;23.110;2023-07-29T13:06:22;95333.06;;;32.71;21.98
43450;BME280;29041;42.266;23.110;2023-07-29T13:09:09;95323.06;;;33.10;22.01
43450;BME280;29041;42.266;23.110;2023-07-29T13:11:57;95322.84;;;33.28;21.81
43450;BME280;29041;42.266;23.110;2023-07-29T13:14:44;95332.41;;;33.42;21.42
43450;BME280;29041;42.266;23.110;2023-07-29T13:17:32;95334.47;;;33.62;21.25
43450;BME280;29041;42.266;23.110;2023-07-29T13:20:19;95339.84;;;33.15;21.42
43450;BME280;29041;42.266;23.110;2023-07-29T13:23:06;95330.38;;;33.07;21.01
43450;BME280;29041;42.266;23.110;2023-07-29T13:25:53;95327.69;;;32.68;21.28
43450;BME280;29041;42.266;23.110;2023-07-29T13:28:41;95325.94;;;32.25;21.97
43450;BME280;29041;42.266;23.110;2023-07-29T13:31:29;95328.66;;;32.50;21.59
43450;BME280;29041;42.266;23.110;2023-07-29T13:34:16;95327.78;;;32.73;21.44
43450;BME280;29041;42.266;23.110;2023-07-29T13:37:04;95329.63;;;32.77;21.65
43450;BME280;29041;42.266;23.110;2023-07-29T13:39:51;95323.47;;;33.02;21.83
43450;BME280;29041;42.266;23.110;2023-07-29T13:42:38;95323.31;;;33.42;21.56
43450;BME280;29041;42.266;23.110;2023-07-29T13:45:27;95324.81;;;32.92;21.45
43450;BME280;29041;42.266;23.110;2023-07-29T13:48:14;95323.00;;;32.89;21.34
43450;BME280;29041;42.266;23.110;2023-07-29T13:51:01;95314.00;;;33.30;21.37
43450;BME280;29041;42.266;23.110;2023-07-29T13:53:48;95314.34;;;33.52;21.66
43450;BME280;29041;42.266;23.110;2023-07-29T13:56:35;95317.75;;;33.42;21.16
43450;BME280;29041;42.266;23.110;2023-07-29T13:59:54;95316.97;;;32.90;22.06
43450;BME280;29041;42.266;23.110;2023-07-29T14:02:45;95316.31;;;32.81;22.23
43450;BME280;29041;42.266;23.110;2023-07-29T14:05:32;95319.44;;;32.73;22.90
43450;BME280;29041;42.266;23.110;2023-07-29T14:08:19;95322.22;;;32.58;22.88
43450;BME280;29041;42.266;23.110;2023-07-29T14:11:08;95332.47;;;32.52;22.73
43450;BME280;29041;42.266;23.110;2023-07-29T14:14:15;95326.63;;;32.65;23.21
43450;BME280;29041;42.266;23.110;2023-07-29T14:17:03;95324.81;;;32.62;23.21
43450;BME280;29041;42.266;23.110;2023-07-29T14:19:51;95326.34;;;32.33;24.02
43450;BME280;29041;42.266;23.110;2023-07-29T14:22:38;95335.78;;;31.87;26.25
43450;BME280;29041;42.266;23.110;2023-07-29T14:25:27;95328.31;;;31.78;27.30
43450;BME280;29041;42.266;23.110;2023-07-29T14:28:14;95328.44;;;31.51;27.56
43450;BME280;29041;42.266;23.110;2023-07-29T14:31:01;95324.91;;;31.50;28.58
43450;BME280;29041;42.266;23.110;2023-07-29T14:33:49;95327.66;;;31.26;28.67
43450;BME280;29041;42.266;23.110;2023-07-29T14:36:38;95319.25;;;31.01;29.12
43450;BME280;29041;42.266;23.110;2023-07-29T14:39:26;95321.84;;;30.72;29.58
43450;BME280;29041;42.266;23.110;2023-07-29T14:42:14;95330.81;;;31.09;29.69